Buoy 52609

sailwx.info

Track history (hours):
 
Tides and Currents Weather Stations Pressure Air Temp Water Temp Dewpoint Dewpoint Depression Visibility Wind Speed Wind Dir Waves Ship Positions

Drifting buoy 52609

Last reported at 2015-Sep-02 21:00 UTC. Time now 2015-Sep-03 08:53 UTC.
Position N 17°51' E 124°52'.

Water temperature 28.3 ° C

Date/timePositionNaut miles runAvg speedWind from/ knotsBaromVisibWave heightAir tempDewpointWater temp
2015-Sep-02 21:00N 17°51' E 124°52'2 1.2 28.3
2015-Sep-02 19:00N 17°51' E 124°50'2 2.3 28.4
2015-Sep-02 18:00N 17°52' E 124°48'23 1.3 28.4
2015-Sep-02 00:00N 18°01' E 124°25'5 1.0 28.6
2015-Sep-01 19:00N 18°01' E 124°20'18 1.8 28.9
2015-Sep-01 09:00N 18°07' E 124°02'0 0.0 28.8
2015-Sep-01 08:00N 18°07' E 124°02'4 3.7 29.1
2015-Sep-01 07:00N 18°10' E 123°60'2 1.0 29.2
2015-Sep-01 05:00N 18°12' E 123°59'4 1.2 29.0
2015-Sep-01 02:00N 18°13' E 123°55'3 0.6 28.7
2015-Aug-31 21:00N 18°14' E 123°52'3 2.5 28.6
2015-Aug-31 20:00N 18°15' E 123°50'12 1.5 28.3
2015-Aug-31 12:00N 18°21' E 123°38'1 0.4 28.5
2015-Aug-31 09:00N 18°22' E 123°39'1 0.4 28.8
2015-Aug-31 05:00N 18°23' E 123°37'11 1.2 28.7
2015-Aug-30 20:00N 18°28' E 123°27'1 0.4 28.0
2015-Aug-30 17:00N 18°29' E 123°27'0 0.0 28.5
2015-Aug-30 16:00N 18°29' E 123°27'2 1.1 28.5
2015-Aug-30 14:00N 18°31' E 123°27'0 0.3 28.6
2015-Aug-30 13:00N 18°31' E 123°27'4 1.3 28.8
2015-Aug-30 10:00N 18°29' E 123°23'1 1.0 28.7
2015-Aug-30 09:00N 18°28' E 123°22'2 1.9 29.3
2015-Aug-30 08:00N 18°28' E 123°20'1 1.5 29.4
2015-Aug-30 07:00N 18°28' E 123°19'4 0.3 29.3
2015-Aug-29 18:00N 18°32' E 123°19'0 0.0 27.2
2015-Aug-29 17:00N 18°32' E 123°19'6 0.9 27.1
2015-Aug-29 10:00N 18°37' E 123°23'2 0.4 27.4
2015-Aug-29 05:00N 18°38' E 123°25'1 0.1 27.7
2015-Aug-28 22:00N 18°38' E 123°25'1 1.1 26.7
2015-Aug-28 21:00N 18°38' E 123°27'8 0.9 26.7
2015-Aug-28 12:00N 18°41' E 123°34'4 1.0 27.4
2015-Aug-28 08:00N 18°43' E 123°38'0 0.0 27.8
2015-Aug-28 07:00N 18°43' E 123°38'2 1.2 27.8
2015-Aug-28 05:00N 18°44' E 123°40'1 0.3 27.9
2015-Aug-28 02:00N 18°45' E 123°39'2 0.6 27.8
2015-Aug-27 22:00N 18°46' E 123°41'11 0.8 26.9
2015-Aug-27 08:00N 18°48' E 123°52'4 1.3 27.8
2015-Aug-27 05:00N 18°49' E 123°56'6 6.3 27.2
2015-Aug-27 04:00N 18°51' E 124°02'15 1.4 26.9
2015-Aug-26 17:00N 18°58' E 124°17'3 0.9 26.4
2015-Aug-26 14:00N 18°59' E 124°19'2 1.1 26.4
2015-Aug-26 12:00N 18°59' E 124°21'6 1.5 26.5
2015-Aug-26 08:00N 18°58' E 124°28'4 2.2 27.0
2015-Aug-26 06:00N 18°59' E 124°32'3 3.0 27.3
2015-Aug-26 05:00N 18°59' E 124°36'11 1.4 27.5
2015-Aug-25 21:00N 19°03' E 124°46'3 2.6 25.2
2015-Aug-25 20:00N 19°04' E 124°49'2 0.6 25.2
2015-Aug-25 17:00N 19°04' E 124°51'14 1.3 25.4
2015-Aug-25 06:00N 19°06' E 125°05'2 2.2 26.4
2015-Aug-25 05:00N 19°07' E 125°07'0 0.0 26.4
2015-Aug-25 04:00N 19°07' E 125°07'3 2.8 26.0
2015-Aug-25 03:00N 19°09' E 125°09'5 0.6 25.9
2015-Aug-24 18:00N 19°13' E 125°13'7 0.8 25.2
2015-Aug-24 09:00N 19°10' E 125°20'12 1.2 25.3
2015-Aug-23 23:00N 19°12' E 125°32'   24.9
Track history (hours):
 
Tides and Currents Weather Stations Pressure Air Temp Water Temp Dewpoint Dewpoint Depression Visibility Wind Speed Wind Dir Waves Ship Positions

Drifting buoy 52609

Last reported at 2015-Sep-02 21:00 UTC. Time now 2015-Sep-03 08:53 UTC.
Position N 17°51' E 124°52'.

Water temperature 28.3 ° C

Date/timePositionNaut miles runAvg speedWind from/ knotsBaromVisibWave heightAir tempDewpointWater temp
2015-Sep-02 21:00N 17°51' E 124°52'2 1.2 28.3
2015-Sep-02 19:00N 17°51' E 124°50'2 2.3 28.4
2015-Sep-02 18:00N 17°52' E 124°48'23 1.3 28.4
2015-Sep-02 00:00N 18°01' E 124°25'5 1.0 28.6
2015-Sep-01 19:00N 18°01' E 124°20'18 1.8 28.9
2015-Sep-01 09:00N 18°07' E 124°02'0 0.0 28.8
2015-Sep-01 08:00N 18°07' E 124°02'4 3.7 29.1
2015-Sep-01 07:00N 18°10' E 123°60'2 1.0 29.2
2015-Sep-01 05:00N 18°12' E 123°59'4 1.2 29.0
2015-Sep-01 02:00N 18°13' E 123°55'3 0.6 28.7
2015-Aug-31 21:00N 18°14' E 123°52'3 2.5 28.6
2015-Aug-31 20:00N 18°15' E 123°50'12 1.5 28.3
2015-Aug-31 12:00N 18°21' E 123°38'1 0.4 28.5
2015-Aug-31 09:00N 18°22' E 123°39'1 0.4 28.8
2015-Aug-31 05:00N 18°23' E 123°37'11 1.2 28.7
2015-Aug-30 20:00N 18°28' E 123°27'1 0.4 28.0
2015-Aug-30 17:00N 18°29' E 123°27'0 0.0 28.5
2015-Aug-30 16:00N 18°29' E 123°27'2 1.1 28.5
2015-Aug-30 14:00N 18°31' E 123°27'0 0.3 28.6
2015-Aug-30 13:00N 18°31' E 123°27'4 1.3 28.8
2015-Aug-30 10:00N 18°29' E 123°23'1 1.0 28.7
2015-Aug-30 09:00N 18°28' E 123°22'2 1.9 29.3
2015-Aug-30 08:00N 18°28' E 123°20'1 1.5 29.4
2015-Aug-30 07:00N 18°28' E 123°19'4 0.3 29.3
2015-Aug-29 18:00N 18°32' E 123°19'0 0.0 27.2
2015-Aug-29 17:00N 18°32' E 123°19'6 0.9 27.1
2015-Aug-29 10:00N 18°37' E 123°23'2 0.4 27.4
2015-Aug-29 05:00N 18°38' E 123°25'1 0.1 27.7
2015-Aug-28 22:00N 18°38' E 123°25'1 1.1 26.7
2015-Aug-28 21:00N 18°38' E 123°27'8 0.9 26.7
2015-Aug-28 12:00N 18°41' E 123°34'4 1.0 27.4
2015-Aug-28 08:00N 18°43' E 123°38'0 0.0 27.8
2015-Aug-28 07:00N 18°43' E 123°38'2 1.2 27.8
2015-Aug-28 05:00N 18°44' E 123°40'1 0.3 27.9
2015-Aug-28 02:00N 18°45' E 123°39'2 0.6 27.8
2015-Aug-27 22:00N 18°46' E 123°41'11 0.8 26.9
2015-Aug-27 08:00N 18°48' E 123°52'4 1.3 27.8
2015-Aug-27 05:00N 18°49' E 123°56'6 6.3 27.2
2015-Aug-27 04:00N 18°51' E 124°02'15 1.4 26.9
2015-Aug-26 17:00N 18°58' E 124°17'3 0.9 26.4
2015-Aug-26 14:00N 18°59' E 124°19'2 1.1 26.4
2015-Aug-26 12:00N 18°59' E 124°21'6 1.5 26.5
2015-Aug-26 08:00N 18°58' E 124°28'4 2.2 27.0
2015-Aug-26 06:00N 18°59' E 124°32'3 3.0 27.3
2015-Aug-26 05:00N 18°59' E 124°36'11 1.4 27.5
2015-Aug-25 21:00N 19°03' E 124°46'3 2.6 25.2
2015-Aug-25 20:00N 19°04' E 124°49'2 0.6 25.2
2015-Aug-25 17:00N 19°04' E 124°51'14 1.3 25.4
2015-Aug-25 06:00N 19°06' E 125°05'2 2.2 26.4
2015-Aug-25 05:00N 19°07' E 125°07'0 0.0 26.4
2015-Aug-25 04:00N 19°07' E 125°07'3 2.8 26.0
2015-Aug-25 03:00N 19°09' E 125°09'5 0.6 25.9
2015-Aug-24 18:00N 19°13' E 125°13'7 0.8 25.2
2015-Aug-24 09:00N 19°10' E 125°20'12 1.2 25.3
2015-Aug-23 23:00N 19°12' E 125°32'   24.9

Dump ship's entire track history